sensor_id;sensor_type;location;lat;lon;timestamp;pressure;altitude;pressure_sealevel;temperature;humidity
21826;BME280;11075;47.944;11.776;2023-02-12T00:00:06;96615.97;;;8.48;19.41
21826;BME280;11075;47.944;11.776;2023-02-12T00:02:41;96617.81;;;7.98;20.36
21826;BME280;11075;47.944;11.776;2023-02-12T00:05:08;96624.69;;;9.13;19.19
21826;BME280;11075;47.944;11.776;2023-02-12T00:07:34;96628.81;;;9.34;18.99
21826;BME280;11075;47.944;11.776;2023-02-12T00:10:01;96621.72;;;8.75;19.79
21826;BME280;11075;47.944;11.776;2023-02-12T00:12:29;96612.84;;;6.75;21.83
21826;BME280;11075;47.944;11.776;2023-02-12T00:14:56;96621.94;;;6.58;21.30
21826;BME280;11075;47.944;11.776;2023-02-12T00:17:23;96606.75;;;4.80;24.44
21826;BME280;11075;47.944;11.776;2023-02-12T00:19:49;96620.22;;;8.00;20.72
21826;BME280;11075;47.944;11.776;2023-02-12T00:22:16;96608.53;;;8.35;20.67
21826;BME280;11075;47.944;11.776;2023-02-12T00:24:43;96600.00;;;6.77;22.05
21826;BME280;11075;47.944;11.776;2023-02-12T00:27:10;96598.16;;;9.01;20.24
21826;BME280;11075;47.944;11.776;2023-02-12T00:29:37;96597.25;;;8.77;19.94
21826;BME280;11075;47.944;11.776;2023-02-12T00:32:04;96604.78;;;7.56;21.19
21826;BME280;11075;47.944;11.776;2023-02-12T00:34:31;96600.81;;;8.67;20.06
21826;BME280;11075;47.944;11.776;2023-02-12T00:36:58;96602.38;;;8.73;19.88
21826;BME280;11075;47.944;11.776;2023-02-12T00:39:25;96604.19;;;8.44;19.89
21826;BME280;11075;47.944;11.776;2023-02-12T00:44:21;96609.63;;;7.49;21.06
21826;BME280;11075;47.944;11.776;2023-02-12T00:46:48;96606.88;;;7.74;20.57
21826;BME280;11075;47.944;11.776;2023-02-12T00:49:16;96612.19;;;9.61;19.04
21826;BME280;11075;47.944;11.776;2023-02-12T00:51:44;96609.31;;;8.40;19.95
21826;BME280;11075;47.944;11.776;2023-02-12T00:54:11;96615.06;;;6.10;21.89
21826;BME280;11075;47.944;11.776;2023-02-12T00:56:38;96589.00;;;5.85;23.42
21826;BME280;11075;47.944;11.776;2023-02-12T00:59:05;96579.56;;;4.88;23.90
21826;BME280;11075;47.944;11.776;2023-02-12T01:01:34;96574.31;;;4.39;24.51
21826;BME280;11075;47.944;11.776;2023-02-12T01:04:02;96593.91;;;7.97;21.02
21826;BME280;11075;47.944;11.776;2023-02-12T01:06:29;96584.94;;;7.52;21.69
21826;BME280;11075;47.944;11.776;2023-02-12T01:08:57;96593.50;;;7.59;21.60
21826;BME280;11075;47.944;11.776;2023-02-12T01:11:23;96613.59;;;7.72;21.29
21826;BME280;11075;47.944;11.776;2023-02-12T01:13:50;96607.78;;;7.24;21.66
21826;BME280;11075;47.944;11.776;2023-02-12T01:16:22;96623.97;;;9.65;18.97
21826;BME280;11075;47.944;11.776;2023-02-12T01:18:52;96619.47;;;5.74;22.88
21826;BME280;11075;47.944;11.776;2023-02-12T01:21:27;96612.50;;;5.73;22.78
21826;BME280;11075;47.944;11.776;2023-02-12T01:23:55;96586.69;;;4.51;25.35
21826;BME280;11075;47.944;11.776;2023-02-12T01:26:23;96597.03;;;5.80;23.57
21826;BME280;11075;47.944;11.776;2023-02-12T01:28:52;96610.84;;;8.96;20.41
21826;BME280;11075;47.944;11.776;2023-02-12T01:31:23;96606.53;;;8.06;20.88
21826;BME280;11075;47.944;11.776;2023-02-12T01:33:52;96587.94;;;7.05;22.63
21826;BME280;11075;47.944;11.776;2023-02-12T01:36:20;96587.47;;;6.05;23.57
21826;BME280;11075;47.944;11.776;2023-02-12T01:38:48;96606.81;;;8.54;20.75
21826;BME280;11075;47.944;11.776;2023-02-12T01:41:23;96616.72;;;9.66;19.64
21826;BME280;11075;47.944;11.776;2023-02-12T01:44:22;96608.06;;;8.22;21.00
21826;BME280;11075;47.944;11.776;2023-02-12T01:46:55;96594.03;;;6.39;22.40
21826;BME280;11075;47.944;11.776;2023-02-12T01:52:03;96604.69;;;9.24;20.03
21826;BME280;11075;47.944;11.776;2023-02-12T01:54:33;96607.28;;;8.66;20.34
21826;BME280;11075;47.944;11.776;2023-02-12T01:57:02;96614.25;;;9.06;20.16
21826;BME280;11075;47.944;11.776;2023-02-12T01:59:30;96619.72;;;7.87;21.17
21826;BME280;11075;47.944;11.776;2023-02-12T02:01:58;96626.34;;;8.20;20.42
21826;BME280;11075;47.944;11.776;2023-02-12T02:04:32;96604.94;;;7.95;21.20
21826;BME280;11075;47.944;11.776;2023-02-12T02:07:04;96604.41;;;9.26;20.23
21826;BME280;11075;47.944;11.776;2023-02-12T02:09:34;96589.00;;;8.19;20.73
21826;BME280;11075;47.944;11.776;2023-02-12T02:12:02;96574.53;;;7.25;22.01
21826;BME280;11075;47.944;11.776;2023-02-12T02:14:50;96591.66;;;7.49;21.48
21826;BME280;11075;47.944;11.776;2023-02-12T02:17:20;96597.75;;;9.47;19.78
21826;BME280;11075;47.944;11.776;2023-02-12T02:39:15;96605.94;;;9.37;19.61
21826;BME280;11075;47.944;11.776;2023-02-12T02:41:58;96609.84;;;10.45;18.82
21826;BME280;11075;47.944;11.776;2023-02-12T02:44:58;96592.59;;;6.16;22.05
21826;BME280;11075;47.944;11.776;2023-02-12T02:47:32;96579.63;;;4.61;25.23
21826;BME280;11075;47.944;11.776;2023-02-12T02:50:08;96587.09;;;6.48;22.93
21826;BME280;11075;47.944;11.776;2023-02-12T02:52:40;96595.41;;;8.28;20.65
21826;BME280;11075;47.944;11.776;2023-02-12T02:55:10;96594.72;;;8.56;20.79
21826;BME280;11075;47.944;11.776;2023-02-12T02:57:56;96604.09;;;8.10;20.66
21826;BME280;11075;47.944;11.776;2023-02-12T03:00:34;96597.56;;;6.90;21.72
21826;BME280;11075;47.944;11.776;2023-02-12T03:03:18;96570.06;;;4.44;25.57
21826;BME280;11075;47.944;11.776;2023-02-12T03:05:49;96574.63;;;4.43;24.80
21826;BME280;11075;47.944;11.776;2023-02-12T03:08:21;96574.09;;;6.05;23.41
21826;BME280;11075;47.944;11.776;2023-02-12T03:10:55;96600.53;;;9.37;19.99
21826;BME280;11075;47.944;11.776;2023-02-12T03:13:33;96584.22;;;4.44;24.29
21826;BME280;11075;47.944;11.776;2023-02-12T03:16:08;96572.19;;;5.43;23.64
21826;BME280;11075;47.944;11.776;2023-02-12T03:18:43;96565.94;;;4.31;24.79
21826;BME280;11075;47.944;11.776;2023-02-12T03:21:16;96549.44;;;4.93;25.02
21826;BME280;11075;47.944;11.776;2023-02-12T03:23:56;96550.16;;;4.56;25.11
21826;BME280;11075;47.944;11.776;2023-02-12T03:26:38;96543.56;;;5.38;25.10
21826;BME280;11075;47.944;11.776;2023-02-12T03:29:06;96548.22;;;4.74;25.85
21826;BME280;11075;47.944;11.776;2023-02-12T03:31:40;96551.94;;;6.29;23.48
21826;BME280;11075;47.944;11.776;2023-02-12T03:37:12;96581.13;;;6.31;22.63
21826;BME280;11075;47.944;11.776;2023-02-12T03:39:52;96587.81;;;6.28;22.69
21826;BME280;11075;47.944;11.776;2023-02-12T03:42:27;96603.97;;;7.55;21.40
21826;BME280;11075;47.944;11.776;2023-02-12T03:45:03;96626.66;;;7.99;20.94
21826;BME280;11075;47.944;11.776;2023-02-12T03:53:07;96579.34;;;4.95;23.95
21826;BME280;11075;47.944;11.776;2023-02-12T03:55:38;96572.59;;;4.55;24.96
21826;BME280;11075;47.944;11.776;2023-02-12T03:58:08;96576.44;;;4.64;24.93
21826;BME280;11075;47.944;11.776;2023-02-12T04:00:37;96571.91;;;3.67;25.84
21826;BME280;11075;47.944;11.776;2023-02-12T04:03:05;96574.50;;;5.24;24.50
21826;BME280;11075;47.944;11.776;2023-02-12T04:05:32;96590.31;;;7.47;21.68
21826;BME280;11075;47.944;11.776;2023-02-12T04:08:01;96600.78;;;6.82;22.01
21826;BME280;11075;47.944;11.776;2023-02-12T04:13:32;96594.34;;;5.80;23.03
21826;BME280;11075;47.944;11.776;2023-02-12T04:16:22;96623.91;;;8.68;20.09
21826;BME280;11075;47.944;11.776;2023-02-12T04:18:52;96628.09;;;8.90;19.99
21826;BME280;11075;47.944;11.776;2023-02-12T04:27:16;96602.25;;;4.59;24.62
21826;BME280;11075;47.944;11.776;2023-02-12T04:32:36;96614.72;;;8.35;21.15
21826;BME280;11075;47.944;11.776;2023-02-12T04:37:44;96621.66;;;8.91;20.74
21826;BME280;11075;47.944;11.776;2023-02-12T04:40:16;96624.16;;;9.45;20.12
21826;BME280;11075;47.944;11.776;2023-02-12T04:42:49;96629.00;;;9.43;20.09
21826;BME280;11075;47.944;11.776;2023-02-12T04:45:21;96622.94;;;8.98;20.17
21826;BME280;11075;47.944;11.776;2023-02-12T04:47:50;96622.22;;;8.38;20.99
21826;BME280;11075;47.944;11.776;2023-02-12T04:50:18;96619.81;;;7.57;21.75
21826;BME280;11075;47.944;11.776;2023-02-12T04:52:45;96625.50;;;6.12;23.10
21826;BME280;11075;47.944;11.776;2023-02-12T04:55:13;96612.06;;;5.91;23.98
21826;BME280;11075;47.944;11.776;2023-02-12T04:57:40;96636.88;;;9.05;20.60
21826;BME280;11075;47.944;11.776;2023-02-12T05:00:10;96650.00;;;8.68;20.46
21826;BME280;11075;47.944;11.776;2023-02-12T05:02:37;96639.66;;;7.51;21.93
21826;BME280;11075;47.944;11.776;2023-02-12T05:05:04;96631.34;;;7.17;22.56
21826;BME280;11075;47.944;11.776;2023-02-12T05:07:31;96632.09;;;8.97;21.02
21826;BME280;11075;47.944;11.776;2023-02-12T05:09:58;96633.81;;;8.83;20.67
21826;BME280;11075;47.944;11.776;2023-02-12T05:12:25;96643.50;;;9.47;20.35
21826;BME280;11075;47.944;11.776;2023-02-12T05:14:52;96651.41;;;9.67;19.50
21826;BME280;11075;47.944;11.776;2023-02-12T05:17:22;96652.03;;;9.59;19.93
21826;BME280;11075;47.944;11.776;2023-02-12T05:19:49;96663.72;;;9.44;20.30
21826;BME280;11075;47.944;11.776;2023-02-12T05:22:16;96654.31;;;8.04;21.46
21826;BME280;11075;47.944;11.776;2023-02-12T05:24:43;96653.22;;;8.10;21.20
21826;BME280;11075;47.944;11.776;2023-02-12T05:27:11;96635.63;;;5.99;23.46
21826;BME280;11075;47.944;11.776;2023-02-12T05:29:37;96625.16;;;6.71;23.34
21826;BME280;11075;47.944;11.776;2023-02-12T05:32:04;96641.78;;;9.61;20.21
21826;BME280;11075;47.944;11.776;2023-02-12T05:34:33;96640.59;;;8.65;21.08
21826;BME280;11075;47.944;11.776;2023-02-12T05:37:00;96637.84;;;8.26;21.59
21826;BME280;11075;47.944;11.776;2023-02-12T05:39:27;96639.13;;;8.44;21.37
21826;BME280;11075;47.944;11.776;2023-02-12T05:41:54;96651.94;;;9.35;20.55
21826;BME280;11075;47.944;11.776;2023-02-12T05:44:21;96652.09;;;8.21;21.64
21826;BME280;11075;47.944;11.776;2023-02-12T05:46:47;96658.63;;;8.05;21.46
21826;BME280;11075;47.944;11.776;2023-02-12T05:49:14;96660.63;;;9.27;20.27
21826;BME280;11075;47.944;11.776;2023-02-12T05:51:41;96663.00;;;9.34;20.07
21826;BME280;11075;47.944;11.776;2023-02-12T05:54:09;96664.16;;;9.86;19.66
21826;BME280;11075;47.944;11.776;2023-02-12T05:56:41;96664.63;;;9.64;20.08
21826;BME280;11075;47.944;11.776;2023-02-12T05:59:15;96656.50;;;9.69;20.28
21826;BME280;11075;47.944;11.776;2023-02-12T06:01:44;96657.75;;;8.79;20.86
21826;BME280;11075;47.944;11.776;2023-02-12T06:04:17;96658.44;;;9.63;20.20
21826;BME280;11075;47.944;11.776;2023-02-12T06:06:45;96669.19;;;10.16;19.89
21826;BME280;11075;47.944;11.776;2023-02-12T06:09:13;96672.31;;;8.04;21.22
21826;BME280;11075;47.944;11.776;2023-02-12T06:11:40;96663.50;;;9.36;20.37
21826;BME280;11075;47.944;11.776;2023-02-12T06:14:10;96668.22;;;9.83;20.25
21826;BME280;11075;47.944;11.776;2023-02-12T06:16:38;96675.22;;;10.32;19.17
21826;BME280;11075;47.944;11.776;2023-02-12T06:19:05;96672.28;;;9.80;20.02
21826;BME280;11075;47.944;11.776;2023-02-12T06:21:33;96680.38;;;10.04;20.09
21826;BME280;11075;47.944;11.776;2023-02-12T06:24:00;96679.69;;;10.41;19.11
21826;BME280;11075;47.944;11.776;2023-02-12T06:26:26;96681.97;;;9.47;20.40
21826;BME280;11075;47.944;11.776;2023-02-12T06:28:53;96691.91;;;9.52;20.08
21826;BME280;11075;47.944;11.776;2023-02-12T06:31:30;96656.94;;;4.78;25.44
21826;BME280;11075;47.944;11.776;2023-02-12T06:34:00;96654.94;;;7.05;23.42
21826;BME280;11075;47.944;11.776;2023-02-12T06:36:28;96672.28;;;9.17;20.91
21826;BME280;11075;47.944;11.776;2023-02-12T06:38:55;96669.16;;;7.66;21.79
21826;BME280;11075;47.944;11.776;2023-02-12T06:41:22;96653.59;;;5.57;24.32
21826;BME280;11075;47.944;11.776;2023-02-12T06:43:49;96647.91;;;5.90;24.37
21826;BME280;11075;47.944;11.776;2023-02-12T06:46:16;96653.44;;;5.36;24.69
21826;BME280;11075;47.944;11.776;2023-02-12T06:48:43;96665.72;;;6.27;22.93
21826;BME280;11075;47.944;11.776;2023-02-12T06:51:16;96654.94;;;6.07;23.80
21826;BME280;11075;47.944;11.776;2023-02-12T06:53:44;96664.06;;;7.19;22.73
21826;BME280;11075;47.944;11.776;2023-02-12T06:56:11;96668.19;;;8.86;20.75
21826;BME280;11075;47.944;11.776;2023-02-12T06:58:41;96670.94;;;9.49;20.56
21826;BME280;11075;47.944;11.776;2023-02-12T07:01:16;96672.25;;;8.19;21.70
21826;BME280;11075;47.944;11.776;2023-02-12T07:03:47;96674.09;;;8.88;21.56
21826;BME280;11075;47.944;11.776;2023-02-12T07:06:14;96695.13;;;9.83;20.02
21826;BME280;11075;47.944;11.776;2023-02-12T07:08:41;96688.22;;;9.04;20.62
21826;BME280;11075;47.944;11.776;2023-02-12T07:11:08;96692.59;;;9.34;20.78
21826;BME280;11075;47.944;11.776;2023-02-12T07:13:35;96688.41;;;8.73;21.24
21826;BME280;11075;47.944;11.776;2023-02-12T07:16:07;96692.78;;;9.08;21.11
21826;BME280;11075;47.944;11.776;2023-02-12T07:18:35;96693.28;;;8.61;21.21
21826;BME280;11075;47.944;11.776;2023-02-12T07:21:03;96692.97;;;8.73;21.03
21826;BME280;11075;47.944;11.776;2023-02-12T07:23:31;96698.53;;;10.65;19.26
21826;BME280;11075;47.944;11.776;2023-02-12T07:26:00;96703.69;;;10.62;19.21
21826;BME280;11075;47.944;11.776;2023-02-12T07:28:27;96713.38;;;11.24;19.25
21826;BME280;11075;47.944;11.776;2023-02-12T07:30:55;96711.25;;;11.02;19.29
21826;BME280;11075;47.944;11.776;2023-02-12T07:33:21;96710.38;;;9.30;20.35
21826;BME280;11075;47.944;11.776;2023-02-12T07:35:48;96704.25;;;9.58;20.87
21826;BME280;11075;47.944;11.776;2023-02-12T07:38:15;96706.94;;;10.83;19.69
21826;BME280;11075;47.944;11.776;2023-02-12T07:40:42;96716.31;;;10.85;19.48
21826;BME280;11075;47.944;11.776;2023-02-12T07:43:09;96716.63;;;8.71;21.02
21826;BME280;11075;47.944;11.776;2023-02-12T07:45:38;96708.53;;;7.96;21.69
21826;BME280;11075;47.944;11.776;2023-02-12T07:48:04;96697.63;;;8.52;21.59
21826;BME280;11075;47.944;11.776;2023-02-12T07:50:31;96683.94;;;9.03;21.53
21826;BME280;11075;47.944;11.776;2023-02-12T07:52:58;96683.69;;;8.50;21.91
21826;BME280;11075;47.944;11.776;2023-02-12T07:55:25;96694.81;;;12.15;18.34
21826;BME280;11075;47.944;11.776;2023-02-12T07:57:52;96695.06;;;11.21;18.80
21826;BME280;11075;47.944;11.776;2023-02-12T08:00:19;96691.97;;;9.76;20.23
21826;BME280;11075;47.944;11.776;2023-02-12T08:02:52;96701.75;;;10.20;19.89
21826;BME280;11075;47.944;11.776;2023-02-12T08:05:19;96693.75;;;11.19;19.05
21826;BME280;11075;47.944;11.776;2023-02-12T08:07:47;96700.22;;;12.70;17.85
21826;BME280;11075;47.944;11.776;2023-02-12T08:10:14;96700.34;;;12.51;17.94
21826;BME280;11075;47.944;11.776;2023-02-12T08:12:40;96706.28;;;14.63;16.35
21826;BME280;11075;47.944;11.776;2023-02-12T08:15:08;96710.63;;;12.77;17.53
21826;BME280;11075;47.944;11.776;2023-02-12T08:17:35;96699.81;;;12.22;18.00
21826;BME280;11075;47.944;11.776;2023-02-12T08:20:02;96704.31;;;12.67;18.03
21826;BME280;11075;47.944;11.776;2023-02-12T08:22:29;96705.63;;;12.70;18.06
21826;BME280;11075;47.944;11.776;2023-02-12T08:24:55;96711.31;;;12.82;17.77
21826;BME280;11075;47.944;11.776;2023-02-12T08:27:22;96713.56;;;13.16;17.37
21826;BME280;11075;47.944;11.776;2023-02-12T08:29:49;96705.84;;;12.32;18.45
21826;BME280;11075;47.944;11.776;2023-02-12T08:32:16;96697.91;;;13.72;17.63
21826;BME280;11075;47.944;11.776;2023-02-12T08:34:43;96707.59;;;13.28;17.40
21826;BME280;11075;47.944;11.776;2023-02-12T08:37:10;96703.75;;;14.75;16.54
21826;BME280;11075;47.944;11.776;2023-02-12T08:39:37;96712.28;;;14.43;16.31
21826;BME280;11075;47.944;11.776;2023-02-12T08:42:04;96707.41;;;13.24;17.64
21826;BME280;11075;47.944;11.776;2023-02-12T08:44:31;96717.13;;;14.63;16.34
21826;BME280;11075;47.944;11.776;2023-02-12T08:46:58;96719.66;;;13.22;17.38
21826;BME280;11075;47.944;11.776;2023-02-12T08:49:27;96702.91;;;13.87;17.00
21826;BME280;11075;47.944;11.776;2023-02-12T08:51:56;96723.78;;;16.30;14.88
21826;BME280;11075;47.944;11.776;2023-02-12T08:54:25;96720.03;;;13.96;16.57
21826;BME280;11075;47.944;11.776;2023-02-12T08:56:59;96729.28;;;17.09;14.35
21826;BME280;11075;47.944;11.776;2023-02-12T08:59:26;96732.09;;;18.90;14.07
21826;BME280;11075;47.944;11.776;2023-02-12T09:01:53;96743.22;;;19.62;13.68
21826;BME280;11075;47.944;11.776;2023-02-12T09:04:25;96717.44;;;16.84;16.38
21826;BME280;11075;47.944;11.776;2023-02-12T09:06:54;96714.22;;;18.32;15.64
21826;BME280;11075;47.944;11.776;2023-02-12T09:09:21;96728.94;;;19.96;14.40
21826;BME280;11075;47.944;11.776;2023-02-12T09:11:49;96733.97;;;21.40;13.40
21826;BME280;11075;47.944;11.776;2023-02-12T09:14:18;96723.22;;;18.57;15.47
21826;BME280;11075;47.944;11.776;2023-02-12T09:16:50;96740.81;;;23.02;12.51
21826;BME280;11075;47.944;11.776;2023-02-12T09:19:23;96734.56;;;19.20;14.83
21826;BME280;11075;47.944;11.776;2023-02-12T09:21:54;96737.41;;;20.35;14.08
21826;BME280;11075;47.944;11.776;2023-02-12T09:24:24;96727.00;;;16.70;16.70
21826;BME280;11075;47.944;11.776;2023-02-12T09:26:51;96738.06;;;19.32;14.92
21826;BME280;11075;47.944;11.776;2023-02-12T09:29:18;96728.88;;;19.13;15.01
21826;BME280;11075;47.944;11.776;2023-02-12T09:31:44;96702.78;;;14.71;18.02
21826;BME280;11075;47.944;11.776;2023-02-12T09:34:12;96746.31;;;21.88;13.74
21826;BME280;11075;47.944;11.776;2023-02-12T09:36:39;96746.03;;;20.69;13.72
21826;BME280;11075;47.944;11.776;2023-02-12T09:39:06;96752.88;;;21.45;13.46
21826;BME280;11075;47.944;11.776;2023-02-12T09:47:35;96716.94;;;16.24;17.73
21826;BME280;11075;47.944;11.776;2023-02-12T09:53:12;96723.84;;;16.50;16.85
21826;BME280;11075;47.944;11.776;2023-02-12T09:55:40;96718.78;;;18.28;15.78
21826;BME280;11075;47.944;11.776;2023-02-12T09:58:16;96719.03;;;18.47;15.83
21826;BME280;11075;47.944;11.776;2023-02-12T10:00:44;96718.25;;;19.63;15.15
21826;BME280;11075;47.944;11.776;2023-02-12T10:03:14;96722.69;;;18.06;16.07
21826;BME280;11075;47.944;11.776;2023-02-12T10:05:52;96716.94;;;16.24;17.78
21826;BME280;11075;47.944;11.776;2023-02-12T10:08:39;96699.13;;;15.79;18.82
21826;BME280;11075;47.944;11.776;2023-02-12T10:19:13;96691.19;;;13.24;20.68
21826;BME280;11075;47.944;11.776;2023-02-12T10:27:10;96701.47;;;14.60;18.98
21826;BME280;11075;47.944;11.776;2023-02-12T10:29:40;96698.38;;;15.62;18.26
21826;BME280;11075;47.944;11.776;2023-02-12T10:32:25;96700.19;;;14.49;19.25
21826;BME280;11075;47.944;11.776;2023-02-12T10:34:54;96680.19;;;12.30;21.32
21826;BME280;11075;47.944;11.776;2023-02-12T10:37:37;96687.25;;;13.75;19.68
21826;BME280;11075;47.944;11.776;2023-02-12T10:42:50;96662.94;;;14.23;19.88
21826;BME280;11075;47.944;11.776;2023-02-12T10:45:23;96676.19;;;15.16;19.20
21826;BME280;11075;47.944;11.776;2023-02-12T10:47:53;96659.53;;;13.78;20.75
21826;BME280;11075;47.944;11.776;2023-02-12T10:50:40;96673.81;;;14.41;20.08
21826;BME280;11075;47.944;11.776;2023-02-12T10:53:19;96673.16;;;15.44;18.88
21826;BME280;11075;47.944;11.776;2023-02-12T10:55:46;96679.25;;;16.43;18.55
21826;BME280;11075;47.944;11.776;2023-02-12T10:58:19;96675.50;;;13.35;20.56
21826;BME280;11075;47.944;11.776;2023-02-12T11:00:55;96680.00;;;14.89;19.15
21826;BME280;11075;47.944;11.776;2023-02-12T11:03:27;96680.47;;;16.54;17.84
21826;BME280;11075;47.944;11.776;2023-02-12T11:05:55;96661.75;;;13.76;20.49
21826;BME280;11075;47.944;11.776;2023-02-12T11:08:34;96672.19;;;15.48;18.90
21826;BME280;11075;47.944;11.776;2023-02-12T11:11:07;96679.53;;;15.56;18.95
21826;BME280;11075;47.944;11.776;2023-02-12T11:13:35;96667.09;;;14.95;18.92
21826;BME280;11075;47.944;11.776;2023-02-12T11:16:02;96664.72;;;14.37;19.79
21826;BME280;11075;47.944;11.776;2023-02-12T11:18:31;96654.13;;;11.65;21.85
21826;BME280;11075;47.944;11.776;2023-02-12T11:21:01;96649.06;;;14.25;20.01
21826;BME280;11075;47.944;11.776;2023-02-12T11:26:01;96648.66;;;11.98;21.79
21826;BME280;11075;47.944;11.776;2023-02-12T11:28:30;96667.72;;;16.75;18.01
21826;BME280;11075;47.944;11.776;2023-02-12T11:31:01;96644.84;;;14.10;20.10
21826;BME280;11075;47.944;11.776;2023-02-12T11:33:34;96652.34;;;14.79;19.56
21826;BME280;11075;47.944;11.776;2023-02-12T11:38:35;96651.69;;;13.23;20.08
21826;BME280;11075;47.944;11.776;2023-02-12T11:41:20;96642.56;;;14.35;19.57
21826;BME280;11075;47.944;11.776;2023-02-12T11:43:48;96632.03;;;14.33;20.53
21826;BME280;11075;47.944;11.776;2023-02-12T11:46:19;96626.22;;;14.83;19.58
21826;BME280;11075;47.944;11.776;2023-02-12T11:48:48;96631.16;;;14.89;19.60
21826;BME280;11075;47.944;11.776;2023-02-12T11:51:26;96619.59;;;11.62;22.58
21826;BME280;11075;47.944;11.776;2023-02-12T11:53:57;96637.06;;;15.09;18.91
21826;BME280;11075;47.944;11.776;2023-02-12T11:56:40;96618.72;;;12.85;21.59
21826;BME280;11075;47.944;11.776;2023-02-12T11:59:29;96628.44;;;13.22;21.23
21826;BME280;11075;47.944;11.776;2023-02-12T12:02:00;96651.38;;;17.71;17.04
21826;BME280;11075;47.944;11.776;2023-02-12T12:04:32;96633.84;;;14.72;20.28
21826;BME280;11075;47.944;11.776;2023-02-12T12:07:05;96623.94;;;14.76;20.06
21826;BME280;11075;47.944;11.776;2023-02-12T12:09:52;96638.06;;;16.24;18.92
21826;BME280;11075;47.944;11.776;2023-02-12T12:21:10;96623.91;;;17.43;17.83
21826;BME280;11075;47.944;11.776;2023-02-12T12:23:43;96605.13;;;11.26;23.50
21826;BME280;11075;47.944;11.776;2023-02-12T12:26:33;96613.38;;;14.49;19.97
21826;BME280;11075;47.944;11.776;2023-02-12T12:29:04;96622.41;;;15.82;19.04
21826;BME280;11075;47.944;11.776;2023-02-12T12:31:39;96612.13;;;12.42;21.83
21826;BME280;11075;47.944;11.776;2023-02-12T12:34:11;96619.88;;;16.15;18.96
21826;BME280;11075;47.944;11.776;2023-02-12T12:53:56;96595.66;;;15.29;20.12
21826;BME280;11075;47.944;11.776;2023-02-12T13:07:41;96603.91;;;15.67;19.10
21826;BME280;11075;47.944;11.776;2023-02-12T13:10:21;96598.59;;;13.14;21.13
21826;BME280;11075;47.944;11.776;2023-02-12T13:15:40;96578.50;;;12.20;22.61
21826;BME280;11075;47.944;11.776;2023-02-12T13:18:57;96574.03;;;12.65;22.08
21826;BME280;11075;47.944;11.776;2023-02-12T13:21:42;96585.38;;;10.60;23.96
21826;BME280;11075;47.944;11.776;2023-02-12T13:24:49;96585.53;;;11.80;22.87
21826;BME280;11075;47.944;11.776;2023-02-12T13:27:23;96583.88;;;12.84;21.69
21826;BME280;11075;47.944;11.776;2023-02-12T13:29:53;96578.78;;;13.05;21.55
21826;BME280;11075;47.944;11.776;2023-02-12T13:32:33;96595.09;;;14.98;20.06
21826;BME280;11075;47.944;11.776;2023-02-12T13:35:01;96583.31;;;12.73;21.95
21826;BME280;11075;47.944;11.776;2023-02-12T13:37:41;96563.09;;;12.34;22.59
21826;BME280;11075;47.944;11.776;2023-02-12T13:40:25;96566.09;;;12.19;22.38
21826;BME280;11075;47.944;11.776;2023-02-12T13:51:25;96571.69;;;14.19;20.57
21826;BME280;11075;47.944;11.776;2023-02-12T13:57:17;96578.72;;;13.72;20.98
21826;BME280;11075;47.944;11.776;2023-02-12T13:59:47;96572.84;;;13.47;20.77
21826;BME280;11075;47.944;11.776;2023-02-12T14:05:23;96564.72;;;10.88;23.04
21826;BME280;11075;47.944;11.776;2023-02-12T14:07:57;96562.16;;;13.82;20.56
21826;BME280;11075;47.944;11.776;2023-02-12T14:10:29;96571.06;;;15.34;20.17
21826;BME280;11075;47.944;11.776;2023-02-12T14:13:13;96575.91;;;14.94;19.58
21826;BME280;11075;47.944;11.776;2023-02-12T14:15:44;96584.06;;;15.75;18.54
21826;BME280;11075;47.944;11.776;2023-02-12T14:23:43;96574.63;;;14.66;19.67
21826;BME280;11075;47.944;11.776;2023-02-12T14:26:16;96563.91;;;13.78;20.68
21826;BME280;11075;47.944;11.776;2023-02-12T14:29:03;96553.91;;;12.08;22.37
21826;BME280;11075;47.944;11.776;2023-02-12T14:31:37;96552.06;;;12.31;21.92
21826;BME280;11075;47.944;11.776;2023-02-12T14:39:28;96543.75;;;10.10;23.96
21826;BME280;11075;47.944;11.776;2023-02-12T14:44:55;96542.56;;;12.69;21.51
21826;BME280;11075;47.944;11.776;2023-02-12T14:50:04;96545.97;;;12.39;21.84
21826;BME280;11075;47.944;11.776;2023-02-12T14:52:37;96552.66;;;13.00;21.01
21826;BME280;11075;47.944;11.776;2023-02-12T14:55:17;96533.59;;;10.44;24.27
21826;BME280;11075;47.944;11.776;2023-02-12T14:57:46;96531.03;;;11.04;23.38
21826;BME280;11075;47.944;11.776;2023-02-12T15:02:46;96540.44;;;13.02;21.32
21826;BME280;11075;47.944;11.776;2023-02-12T15:05:23;96538.06;;;10.87;23.95
21826;BME280;11075;47.944;11.776;2023-02-12T15:08:40;96542.69;;;11.46;22.69
21826;BME280;11075;47.944;11.776;2023-02-12T15:10:48;96533.88;;;10.62;23.94
21826;BME280;11075;47.944;11.776;2023-02-12T15:13:46;96539.59;;;10.74;23.81
21826;BME280;11075;47.944;11.776;2023-02-12T15:16:22;96530.78;;;10.68;23.88
21826;BME280;11075;47.944;11.776;2023-02-12T15:19:02;96518.56;;;9.58;25.34
21826;BME280;11075;47.944;11.776;2023-02-12T15:21:31;96544.81;;;11.90;22.54
21826;BME280;11075;47.944;11.776;2023-02-12T15:24:10;96548.75;;;12.48;21.61
21826;BME280;11075;47.944;11.776;2023-02-12T15:26:41;96545.69;;;12.13;22.44
21826;BME280;11075;47.944;11.776;2023-02-12T15:29:21;96528.25;;;10.02;24.82
21826;BME280;11075;47.944;11.776;2023-02-12T15:31:53;96546.78;;;12.62;21.74
21826;BME280;11075;47.944;11.776;2023-02-12T15:34:23;96541.09;;;11.59;22.40
21826;BME280;11075;47.944;11.776;2023-02-12T15:36:50;96519.50;;;9.91;24.66
21826;BME280;11075;47.944;11.776;2023-02-12T15:39:20;96537.97;;;12.34;21.55
21826;BME280;11075;47.944;11.776;2023-02-12T15:41:48;96535.41;;;12.01;22.20
21826;BME280;11075;47.944;11.776;2023-02-12T15:44:33;96546.13;;;11.93;21.98
21826;BME280;11075;47.944;11.776;2023-02-12T15:47:13;96519.00;;;9.65;24.73